KHTL/HTL METAR and TAF weather

Enter ICAO airport designator
Station Type Date Time Source
KHTL METAR 2018/12/13 07:53 UTC NOAA

KHTL 130753Z AUTO 00000KT 2 1/2SM BR OVC046 M02/M02 A2997 RMK AO2 SLP162 T10171022


Station Type Date Time Source
KHTL Decoded METAR 2018/12/13 07:53 UTC NOAA

ROSCOMMON COUNTY AIRPORT, MI, United States (KHTL) 44-21N 084-40W 351M
Dec 13, 2018 - 02:53 AM EST / 2018.12.13 0753 UTC
Wind: Calm:0
Visibility: 2 1/2 mile(s):0
Sky conditions: overcast
Weather: mist
Temperature: 28.9 F (-1.7 C)
Dew Point: 28.0 F (-2.2 C)
Relative Humidity: 96%
Pressure (altimeter): 29.97 in. Hg (1014 hPa)
ob: KHTL 130753Z AUTO 00000KT 2 1/2SM BR OVC046 M02/M02 A2997 RMK AO2 SLP162 T10171022
cycle: 8

Station Type Date Time Source
KHTL TAF UTC NOAA

Error!


Example: see airport list